Time;durP1;ratioP1;P1;durP2;ratioP2;P2;SDS_P1;SDS_P2;PMS_P1;PMS_P2;Temp;Humidity;BMP_temperature;BMP_pressure;BME280_temperature;BME280_humidity;BME280_pressure;Samples;Min_cycle;Max_cycle;Signal;HPM_P1;HPM_P2
2023/07/08 00:01:14;;;;;;;2.77;2.57;;;21.40;94.20;;;;;;5050139;28;20491;-71
2023/07/08 00:03:40;;;;;;;4.30;3.27;;;21.40;94.30;;;;;;5049743;28;20205;-70
2023/07/08 00:06:11;;;;;;;3.67;3.37;;;21.40;94.40;;;;;;5049864;28;20475;-69
2023/07/08 00:08:37;;;;;;;3.40;3.10;;;21.40;94.70;;;;;;5049183;28;20259;-69
2023/07/08 00:11:09;;;;;;;3.40;3.10;;;21.40;94.80;;;;;;5050022;28;20417;-69
2023/07/08 00:13:35;;;;;;;3.73;2.80;;;21.30;94.80;;;;;;5049537;28;20268;-69
2023/07/08 00:16:01;;;;;;;3.50;2.90;;;21.40;94.90;;;;;;5049576;28;20528;-70
2023/07/08 00:18:26;;;;;;;4.10;3.00;;;21.30;94.90;;;;;;5049738;28;20202;-70
2023/07/08 00:20:52;;;;;;;3.73;3.23;;;21.30;95.10;;;;;;5049838;28;20174;-71
2023/07/08 00:23:26;;;;;;;3.70;3.23;;;21.30;95.80;;;;;;5049355;28;20207;-70
2023/07/08 00:25:52;;;;;;;5.67;3.07;;;21.30;95.60;;;;;;5049467;28;20509;-69
2023/07/08 00:28:20;;;;;;;4.43;3.07;;;21.30;95.80;;;;;;5049584;28;20499;-69
2023/07/08 00:30:46;;;;;;;4.20;2.70;;;21.20;95.90;;;;;;5049656;28;20516;-69
2023/07/08 00:33:12;;;;;;;5.77;3.37;;;21.20;96.20;;;;;;5049079;28;20495;-71
2023/07/08 00:35:39;;;;;;;3.50;3.20;;;21.20;96.40;;;;;;5049236;28;20189;-70
2023/07/08 00:38:14;;;;;;;3.93;3.60;;;21.20;96.60;;;;;;5049506;28;20864;-69
2023/07/08 00:40:57;;;;;;;4.10;3.40;;;21.10;96.90;;;;;;5049311;28;20746;-69
2023/07/08 00:43:43;;;;;;;4.30;3.40;;;21.10;97.10;;;;;;5048889;28;20412;-71
2023/07/08 00:46:26;;;;;;;3.47;3.17;;;21.10;97.40;;;;;;5049060;28;20507;-70
2023/07/08 00:49:07;;;;;;;4.80;3.47;;;21.00;97.80;;;;;;5049313;28;21041;-69
2023/07/08 00:51:39;;;;;;;3.57;3.27;;;21.00;98.20;;;;;;5049239;28;20465;-69
2023/07/08 00:54:16;;;;;;;3.27;2.90;;;21.00;98.50;;;;;;5048498;28;20423;-70
2023/07/08 00:57:00;;;;;;;4.30;3.90;;;20.90;98.60;;;;;;5048847;28;20904;-70
2023/07/08 00:59:58;;;;;;;4.60;3.50;;;20.90;98.60;;;;;;5049223;28;20836;-69
2023/07/08 01:02:26;;;;;;;4.67;3.13;;;20.90;98.70;;;;;;5037742;28;20989;-70
2023/07/08 01:05:06;;;;;;;4.40;3.40;;;20.90;98.80;;;;;;5048747;28;20447;-69
2023/07/08 01:07:33;;;;;;;4.17;3.43;;;20.90;98.80;;;;;;5048892;28;20510;-70
2023/07/08 01:10:07;;;;;;;4.77;3.20;;;20.80;99.10;;;;;;5048957;28;20799;-70
2023/07/08 01:12:38;;;;;;;4.20;3.43;;;20.80;99.20;;;;;;5048590;28;20482;-69
2023/07/08 01:15:06;;;;;;;3.47;3.17;;;20.80;99.20;;;;;;5048562;28;20446;-69
2023/07/08 01:17:32;;;;;;;5.40;3.33;;;20.70;99.30;;;;;;5048814;28;20412;-70
2023/07/08 01:20:07;;;;;;;3.70;3.40;;;20.70;99.40;;;;;;5048854;28;20956;-71
2023/07/08 01:22:36;;;;;;;4.20;3.10;;;20.70;99.50;;;;;;5048493;28;20173;-70
2023/07/08 01:25:03;;;;;;;3.73;3.23;;;20.70;99.50;;;;;;5046973;28;20466;-71
2023/07/08 01:27:34;;;;;;;5.17;3.13;;;20.70;99.70;;;;;;5048582;28;20425;-70
2023/07/08 01:30:02;;;;;;;3.63;3.33;;;20.60;99.90;;;;;;5048555;28;20474;-72
2023/07/08 01:32:30;;;;;;;4.70;3.00;;;20.60;99.90;;;;;;5048318;28;20485;-69
2023/07/08 01:35:01;;;;;;;5.20;4.60;;;20.60;99.90;;;;;;5048317;28;20412;-69
2023/07/08 01:37:33;;;;;;;4.83;3.77;;;20.50;99.90;;;;;;5048742;28;20413;-69
2023/07/08 01:40:19;;;;;;;3.67;3.33;;;20.50;99.90;;;;;;5048232;28;20456;-70
2023/07/08 01:42:45;;;;;;;6.03;3.60;;;20.40;99.90;;;;;;5048052;28;20954;-70
2023/07/08 01:45:21;;;;;;;3.63;3.33;;;20.40;99.90;;;;;;5048073;28;20932;-71
2023/07/08 01:47:56;;;;;;;3.93;3.63;;;20.40;99.90;;;;;;5048227;28;20502;-70
2023/07/08 01:50:23;;;;;;;3.57;3.27;;;20.40;99.90;;;;;;5048438;28;20454;-70
2023/07/08 01:52:51;;;;;;;4.50;3.80;;;20.40;99.90;;;;;;5047993;28;20447;-69
2023/07/08 01:55:24;;;;;;;4.50;3.53;;;20.30;99.90;;;;;;5047979;28;20428;-69
2023/07/08 01:57:53;;;;;;;3.87;3.57;;;20.30;99.90;;;;;;5046831;28;20408;-69
2023/07/08 02:00:19;;;;;;;4.10;3.47;;;20.20;99.90;;;;;;5048108;28;20412;-69
2023/07/08 02:02:45;;;;;;;3.43;3.13;;;20.20;99.90;;;;;;5047860;28;20711;-69
2023/07/08 02:05:11;;;;;;;3.50;3.00;;;20.20;99.90;;;;;;5048086;28;20481;-69
2023/07/08 02:07:36;;;;;;;5.63;3.30;;;20.10;99.90;;;;;;5051461;28;20197;-71
2023/07/08 02:10:02;;;;;;;3.30;3.00;;;20.10;99.90;;;;;;5052283;28;20231;-69
2023/07/08 02:12:28;;;;;;;4.80;3.47;;;20.00;99.90;;;;;;5051739;28;20192;-70
2023/07/08 02:14:53;;;;;;;4.50;3.57;;;20.00;99.90;;;;;;5051906;28;20182;-69
2023/07/08 02:17:19;;;;;;;5.40;4.03;;;19.90;99.90;;;;;;5052032;28;20174;-70
2023/07/08 02:19:45;;;;;;;4.30;3.70;;;19.90;99.90;;;;;;5051994;28;20201;-71
2023/07/08 02:22:10;;;;;;;3.20;3.00;;;19.90;99.90;;;;;;5051627;28;20647;-69
2023/07/08 02:24:36;;;;;;;4.67;3.80;;;19.80;99.90;;;;;;5051651;28;20394;-71
2023/07/08 02:27:02;;;;;;;4.30;3.90;;;19.70;99.90;;;;;;5051742;28;20208;-70
2023/07/08 02:29:27;;;;;;;5.00;3.77;;;19.70;99.90;;;;;;5051565;28;20185;-70
2023/07/08 02:31:53;;;;;;;3.90;3.50;;;19.60;99.90;;;;;;5051995;28;20178;-69
2023/07/08 02:34:19;;;;;;;4.20;3.80;;;19.70;99.90;;;;;;5051324;28;20890;-69
2023/07/08 02:36:44;;;;;;;3.43;3.13;;;19.60;99.90;;;;;;5051742;28;20205;-69
2023/07/08 02:39:11;;;;;;;4.80;3.97;;;19.60;99.90;;;;;;5051768;28;20211;-70
2023/07/08 02:41:37;;;;;;;5.20;4.33;;;19.60;99.90;;;;;;5051603;28;20416;-69
2023/07/08 02:44:02;;;;;;;3.97;3.57;;;19.60;99.90;;;;;;5051121;28;20423;-69
2023/07/08 02:46:28;;;;;;;4.20;3.80;;;19.50;99.90;;;;;;5050232;28;20420;-69
2023/07/08 02:48:54;;;;;;;6.30;3.57;;;19.50;99.90;;;;;;5051561;28;20189;-69
2023/07/08 02:51:19;;;;;;;3.90;3.50;;;19.40;99.90;;;;;;5051516;28;20184;-69
2023/07/08 02:53:47;;;;;;;4.03;3.67;;;19.40;99.90;;;;;;5050926;28;20180;-70
2023/07/08 02:56:12;;;;;;;3.80;3.43;;;19.40;99.90;;;;;;5050915;28;20232;-70
2023/07/08 02:58:38;;;;;;;4.33;3.67;;;19.30;99.90;;;;;;5049884;28;20479;-71
2023/07/08 03:01:06;;;;;;;4.33;3.70;;;19.40;99.90;;;;;;5051301;28;20166;-71
2023/07/08 03:03:32;;;;;;;4.43;3.57;;;19.30;99.90;;;;;;5050965;28;20962;-70
2023/07/08 03:06:01;;;;;;;5.90;3.97;;;19.40;99.90;;;;;;5050889;28;20466;-70
2023/07/08 03:08:27;;;;;;;4.40;3.90;;;19.40;99.90;;;;;;5050989;28;20435;-71
2023/07/08 03:11:02;;;;;;;3.87;3.53;;;19.40;99.90;;;;;;5051201;28;20469;-70
2023/07/08 03:13:28;;;;;;;4.07;3.77;;;19.30;99.90;;;;;;5050781;28;20404;-71
2023/07/08 03:15:55;;;;;;;6.60;3.40;;;19.30;99.90;;;;;;5050825;28;20420;-69
2023/07/08 03:18:23;;;;;;;4.70;3.43;;;19.30;99.90;;;;;;5050488;28;20448;-69
2023/07/08 03:20:49;;;;;;;4.03;3.63;;;19.30;99.90;;;;;;5050965;28;20746;-69
2023/07/08 03:23:15;;;;;;;3.80;3.50;;;19.30;99.90;;;;;;5050367;28;20405;-70
2023/07/08 03:25:42;;;;;;;4.07;3.50;;;19.30;99.90;;;;;;5050429;28;20432;-69
2023/07/08 03:28:14;;;;;;;3.77;3.17;;;19.20;99.90;;;;;;5050842;28;20557;-69
2023/07/08 03:30:41;;;;;;;4.13;3.70;;;19.20;99.90;;;;;;5050693;28;20466;-70
2023/07/08 03:33:07;;;;;;;5.37;4.30;;;19.20;99.90;;;;;;5050284;28;20749;-70
2023/07/08 03:35:33;;;;;;;4.73;4.27;;;19.10;99.90;;;;;;5050329;28;20450;-71
2023/07/08 03:37:59;;;;;;;6.97;3.57;;;19.00;99.90;;;;;;5050670;28;20495;-70
2023/07/08 03:40:25;;;;;;;5.60;3.37;;;19.00;99.90;;;;;;5050462;28;20185;-71
2023/07/08 03:42:50;;;;;;;5.23;3.47;;;19.00;99.90;;;;;;5050246;28;20169;-69
2023/07/08 03:45:16;;;;;;;4.73;3.80;;;18.90;99.90;;;;;;5050116;28;20196;-70
2023/07/08 03:47:42;;;;;;;4.13;3.50;;;19.00;99.90;;;;;;5050385;28;20170;-70
2023/07/08 03:50:24;;;;;;;4.00;3.60;;;18.90;99.90;;;;;;5050246;28;20447;-70
2023/07/08 03:52:52;;;;;;;4.57;4.17;;;18.90;99.90;;;;;;5049889;28;20235;-70
2023/07/08 03:55:18;;;;;;;3.73;3.27;;;18.80;99.90;;;;;;5049857;28;21371;-70
2023/07/08 03:57:43;;;;;;;5.80;4.00;;;18.70;99.90;;;;;;5050358;28;20412;-70
2023/07/08 04:00:10;;;;;;;4.13;3.27;;;18.60;99.90;;;;;;5050247;28;20416;-71
2023/07/08 04:02:36;;;;;;;3.67;3.37;;;18.50;99.90;;;;;;5049766;28;20180;-70
2023/07/08 04:05:03;;;;;;;4.27;3.87;;;18.50;99.90;;;;;;5049807;28;20888;-70
2023/07/08 04:07:29;;;;;;;5.27;3.60;;;18.40;99.90;;;;;;5049073;28;20428;-71
2023/07/08 04:09:55;;;;;;;5.73;3.77;;;18.30;99.90;;;;;;5050056;28;20474;-71
2023/07/08 04:12:20;;;;;;;4.40;3.90;;;18.30;99.90;;;;;;5048469;28;20417;-70
2023/07/08 04:14:46;;;;;;;4.13;3.73;;;18.20;99.90;;;;;;5049783;28;20261;-69
2023/07/08 04:17:13;;;;;;;4.73;3.97;;;18.10;99.90;;;;;;5049949;28;20194;-70
2023/07/08 04:19:39;;;;;;;4.57;4.00;;;18.10;99.90;;;;;;5049574;28;20425;-70
2023/07/08 04:22:05;;;;;;;4.87;4.33;;;18.10;99.90;;;;;;5049514;28;20412;-70
2023/07/08 04:24:31;;;;;;;4.03;3.73;;;18.10;99.90;;;;;;5049518;28;20182;-70
2023/07/08 04:26:58;;;;;;;6.00;3.70;;;18.20;99.90;;;;;;5049487;28;20964;-69
2023/07/08 04:29:24;;;;;;;4.60;3.80;;;18.20;99.90;;;;;;5048742;28;20728;-71
2023/07/08 04:31:50;;;;;;;4.43;4.03;;;18.30;99.90;;;;;;5049696;28;20420;-70
2023/07/08 04:34:16;;;;;;;4.10;3.70;;;18.40;99.90;;;;;;5049147;28;20964;-70
2023/07/08 04:36:43;;;;;;;4.37;3.97;;;18.40;99.90;;;;;;5049156;28;20688;-70
2023/07/08 04:39:10;;;;;;;3.77;3.33;;;18.50;99.90;;;;;;5049412;28;20462;-70
2023/07/08 04:41:40;;;;;;;4.43;4.03;;;18.50;99.90;;;;;;5049264;28;20811;-70
2023/07/08 04:44:13;;;;;;;4.50;3.83;;;18.50;99.90;;;;;;5047733;28;20908;-71
2023/07/08 04:46:40;;;;;;;4.10;3.70;;;18.50;99.90;;;;;;5044656;28;20540;-70
2023/07/08 04:49:09;;;;;;;4.63;4.23;;;18.50;99.90;;;;;;5046361;28;20423;-70
2023/07/08 04:51:36;;;;;;;4.30;3.90;;;18.50;99.90;;;;;;5048000;28;20420;-69
2023/07/08 04:54:02;;;;;;;4.30;3.90;;;18.50;99.90;;;;;;5045583;28;20424;-70
2023/07/08 04:56:42;;;;;;;4.63;3.77;;;18.50;99.90;;;;;;5049828;28;20443;-70
2023/07/08 04:59:09;;;;;;;8.47;4.47;;;18.60;99.90;;;;;;5046357;28;20447;-69
2023/07/08 05:01:35;;;;;;;4.40;4.00;;;18.50;99.90;;;;;;5047679;28;20423;-70
2023/07/08 05:04:01;;;;;;;4.20;3.67;;;18.50;99.90;;;;;;5048568;28;20408;-70
2023/07/08 05:06:27;;;;;;;5.93;4.20;;;18.60;99.90;;;;;;5045166;28;20803;-70
2023/07/08 05:08:53;;;;;;;6.23;4.03;;;18.60;99.90;;;;;;5048513;28;20428;-70
2023/07/08 05:11:19;;;;;;;5.37;4.70;;;18.60;99.90;;;;;;5048700;28;20424;-71
2023/07/08 05:13:45;;;;;;;4.30;3.90;;;18.60;99.90;;;;;;5048561;28;20256;-70
2023/07/08 05:16:10;;;;;;;4.30;4.00;;;18.70;99.90;;;;;;5048513;28;20212;-70
2023/07/08 05:18:36;;;;;;;8.70;4.60;;;18.80;99.90;;;;;;5048677;28;20697;-70
2023/07/08 05:21:02;;;;;;;5.30;4.30;;;19.00;99.90;;;;;;5047102;28;20178;-70
2023/07/08 05:23:28;;;;;;;5.33;4.50;;;19.00;99.90;;;;;;5048339;28;20178;-70
2023/07/08 05:25:54;;;;;;;4.40;4.00;;;19.20;99.90;;;;;;5048220;28;20489;-70
2023/07/08 05:28:21;;;;;;;6.53;4.70;;;19.30;99.90;;;;;;5048512;28;20669;-71
2023/07/08 05:30:47;;;;;;;4.40;4.00;;;19.50;99.90;;;;;;5045987;28;20192;-70
2023/07/08 05:33:13;;;;;;;5.70;4.07;;;19.70;99.90;;;;;;5047586;28;20464;-69
2023/07/08 05:35:39;;;;;;;6.70;4.90;;;19.80;99.90;;;;;;5047546;28;20472;-70
2023/07/08 05:38:04;;;;;;;5.07;4.57;;;20.00;99.90;;;;;;5048465;28;20677;-71
2023/07/08 05:40:30;;;;;;;4.00;3.70;;;20.10;99.90;;;;;;5051481;28;20248;-70
2023/07/08 05:42:55;;;;;;;4.27;3.80;;;20.20;99.90;;;;;;5043759;28;20184;-70
2023/07/08 05:45:21;;;;;;;4.60;4.20;;;20.30;99.90;;;;;;5046644;28;20205;-70
2023/07/08 05:47:47;;;;;;;5.43;4.23;;;20.40;99.90;;;;;;5048372;28;20252;-71
2023/07/08 05:50:12;;;;;;;5.10;4.60;;;20.50;99.90;;;;;;5048591;28;20512;-70
2023/07/08 05:52:38;;;;;;;4.67;4.27;;;20.80;99.90;;;;;;5047829;28;20205;-69
2023/07/08 05:55:04;;;;;;;7.97;4.27;;;20.90;99.90;;;;;;5048012;28;20253;-70
2023/07/08 05:57:30;;;;;;;6.17;4.03;;;21.20;99.90;;;;;;5048117;28;20749;-69
2023/07/08 05:59:56;;;;;;;4.77;3.70;;;21.30;99.90;;;;;;5048182;28;20542;-70
2023/07/08 06:02:23;;;;;;;6.83;4.20;;;21.50;99.90;;;;;;5047930;28;20181;-70
2023/07/08 06:04:49;;;;;;;5.90;4.00;;;21.70;99.90;;;;;;5047997;28;20177;-69
2023/07/08 06:07:15;;;;;;;4.17;3.40;;;21.90;99.90;;;;;;5048806;28;20887;-70
2023/07/08 06:09:41;;;;;;;5.93;3.93;;;22.10;99.90;;;;;;5048178;28;20482;-71
2023/07/08 06:12:07;;;;;;;5.70;3.90;;;22.20;99.90;;;;;;5047860;28;20412;-70
2023/07/08 06:14:33;;;;;;;3.97;3.57;;;22.30;99.90;;;;;;5048032;28;20227;-70
2023/07/08 06:16:58;;;;;;;4.47;3.90;;;22.50;99.90;;;;;;5047490;28;20201;-70
2023/07/08 06:19:24;;;;;;;7.10;4.40;;;22.50;99.90;;;;;;5047538;28;20202;-70
2023/07/08 06:21:50;;;;;;;4.40;4.00;;;22.60;99.90;;;;;;5047702;28;20572;-70
2023/07/08 06:24:16;;;;;;;4.63;4.13;;;22.70;99.90;;;;;;5047272;28;20553;-70
2023/07/08 06:26:41;;;;;;;4.40;3.97;;;22.90;99.90;;;;;;5047362;28;20530;-70
2023/07/08 06:29:07;;;;;;;5.33;4.10;;;23.10;99.90;;;;;;5047907;28;20446;-70
2023/07/08 06:31:33;;;;;;;6.10;4.10;;;23.30;99.90;;;;;;5047851;28;20224;-71
2023/07/08 06:34:00;;;;;;;8.63;4.10;;;23.40;99.90;;;;;;5047764;28;20261;-71
2023/07/08 06:36:26;;;;;;;6.73;4.73;;;23.50;99.90;;;;;;5047860;28;20198;-70
2023/07/08 06:38:51;;;;;;;5.17;4.67;;;23.50;99.90;;;;;;5047099;28;20448;-70
2023/07/08 06:41:17;;;;;;;5.57;5.07;;;23.50;99.80;;;;;;5048413;28;20205;-70
2023/07/08 06:43:43;;;;;;;5.90;5.27;;;23.50;99.70;;;;;;5047812;28;20717;-72
2023/07/08 06:46:08;;;;;;;5.60;5.07;;;23.40;99.70;;;;;;5047803;28;20189;-71
2023/07/08 06:48:34;;;;;;;5.73;4.80;;;23.30;99.70;;;;;;5047834;28;20185;-70
2023/07/08 06:51:00;;;;;;;5.23;4.73;;;23.30;99.90;;;;;;5047894;28;20178;-70
2023/07/08 06:53:25;;;;;;;7.30;5.30;;;23.30;99.90;;;;;;5049686;28;20186;-70
2023/07/08 06:55:51;;;;;;;5.70;4.63;;;23.40;99.90;;;;;;5050610;28;20209;-71
2023/07/08 06:58:17;;;;;;;5.87;4.40;;;23.40;99.90;;;;;;5050765;28;20208;-70
2023/07/08 07:00:44;;;;;;;4.87;4.10;;;23.50;99.90;;;;;;5050941;28;20246;-70
2023/07/08 07:03:10;;;;;;;6.70;4.60;;;23.60;99.90;;;;;;5050504;28;20192;-71
2023/07/08 07:05:36;;;;;;;4.90;4.50;;;23.60;99.90;;;;;;5050467;28;20463;-72
2023/07/08 07:08:02;;;;;;;5.70;4.40;;;23.70;99.90;;;;;;5050821;28;20427;-71
2023/07/08 07:10:29;;;;;;;6.03;4.60;;;23.80;99.90;;;;;;5051118;28;20263;-70
2023/07/08 07:12:55;;;;;;;5.73;4.87;;;23.90;99.80;;;;;;5050740;28;20478;-70
2023/07/08 07:15:20;;;;;;;5.90;4.50;;;24.00;99.20;;;;;;5051157;28;20662;-70
2023/07/08 07:17:46;;;;;;;5.43;4.93;;;24.10;99.20;;;;;;5051142;28;20182;-72
2023/07/08 07:20:12;;;;;;;5.13;4.63;;;24.10;99.40;;;;;;5051107;28;20903;-70
2023/07/08 07:22:38;;;;;;;5.90;4.80;;;24.20;99.10;;;;;;5050588;28;20170;-70
2023/07/08 07:25:04;;;;;;;5.70;5.20;;;24.30;98.70;;;;;;5050931;28;20778;-70
2023/07/08 07:27:30;;;;;;;5.07;4.50;;;24.40;98.60;;;;;;5049671;28;20189;-70
2023/07/08 07:29:59;;;;;;;5.70;4.90;;;24.40;98.40;;;;;;5050893;28;20947;-71
2023/07/08 07:32:26;;;;;;;6.07;4.80;;;24.50;99.00;;;;;;5050460;28;20504;-71
2023/07/08 07:34:51;;;;;;;5.23;4.80;;;24.60;99.90;;;;;;5050569;28;20444;-70
2023/07/08 07:37:19;;;;;;;10.33;4.97;;;24.70;99.90;;;;;;5051238;28;20451;-70
2023/07/08 07:39:45;;;;;;;5.80;5.20;;;24.70;99.60;;;;;;5050861;28;20806;-71
2023/07/08 07:42:13;;;;;;;7.07;5.13;;;24.70;99.70;;;;;;5050453;28;20417;-70
2023/07/08 07:44:41;;;;;;;4.60;4.20;;;24.80;99.40;;;;;;5050218;28;20443;-71
2023/07/08 07:47:08;;;;;;;5.40;4.87;;;24.80;99.70;;;;;;5050981;28;20515;-70
2023/07/08 07:49:34;;;;;;;4.87;4.47;;;24.90;99.80;;;;;;5045145;28;20956;-71
2023/07/08 07:52:00;;;;;;;5.10;4.60;;;25.00;99.90;;;;;;5047109;28;20519;-71
2023/07/08 07:54:26;;;;;;;5.43;4.80;;;25.00;99.90;;;;;;5049780;28;20190;-71
2023/07/08 07:56:52;;;;;;;5.80;5.20;;;25.00;99.90;;;;;;5049140;28;20288;-70
2023/07/08 07:59:18;;;;;;;4.47;4.10;;;25.10;99.90;;;;;;5050080;28;20460;-71
2023/07/08 08:01:44;;;;;;;5.17;4.77;;;25.20;99.90;;;;;;5050220;28;20852;-71
2023/07/08 08:04:10;;;;;;;5.90;5.10;;;25.10;99.90;;;;;;5048725;28;20462;-71
2023/07/08 08:06:36;;;;;;;6.40;5.80;;;25.10;99.90;;;;;;5049874;28;20208;-71
2023/07/08 08:09:03;;;;;;;6.30;5.70;;;25.20;98.70;;;;;;5049774;28;20440;-70
2023/07/08 08:11:29;;;;;;;14.13;5.60;;;25.30;98.80;;;;;;5049908;28;20185;-70
2023/07/08 08:13:55;;;;;;;6.20;5.60;;;25.30;98.40;;;;;;5049797;28;20412;-71
2023/07/08 08:16:21;;;;;;;6.67;5.73;;;25.50;98.10;;;;;;5049897;28;20432;-71
2023/07/08 08:18:47;;;;;;;6.10;5.50;;;25.50;97.00;;;;;;5049912;28;20456;-71
2023/07/08 08:21:13;;;;;;;6.00;5.50;;;25.60;97.20;;;;;;5050185;28;20415;-70
2023/07/08 08:23:39;;;;;;;7.60;5.30;;;25.60;96.40;;;;;;5046666;28;20193;-71
2023/07/08 08:26:05;;;;;;;6.87;6.10;;;25.70;96.70;;;;;;5046525;28;20839;-71
2023/07/08 08:28:30;;;;;;;8.20;5.80;;;25.70;97.00;;;;;;5049939;28;20654;-70
2023/07/08 08:30:56;;;;;;;7.07;6.13;;;25.80;96.20;;;;;;5049920;28;20186;-70
2023/07/08 08:33:22;;;;;;;6.77;5.63;;;25.80;96.80;;;;;;5049611;28;20191;-70
2023/07/08 08:35:48;;;;;;;6.87;5.57;;;25.90;97.00;;;;;;5056823;28;20225;-70
2023/07/08 08:38:14;;;;;;;7.23;6.53;;;26.00;96.60;;;;;;5048687;28;21026;-70
2023/07/08 08:40:41;;;;;;;5.60;5.00;;;26.10;96.60;;;;;;5047176;28;20210;-71
2023/07/08 08:43:13;;;;;;;7.90;5.70;;;26.20;96.90;;;;;;5047882;28;20185;-71
2023/07/08 08:46:06;;;;;;;8.67;5.83;;;26.30;96.00;;;;;;5048670;28;20482;-70
2023/07/08 08:48:37;;;;;;;6.03;5.50;;;26.40;95.40;;;;;;5049420;28;20408;-71
2023/07/08 08:51:09;;;;;;;6.57;5.97;;;26.50;95.00;;;;;;5049544;28;20423;-71
2023/07/08 08:53:35;;;;;;;6.43;5.70;;;26.60;94.30;;;;;;5048917;28;20416;-71
2023/07/08 08:56:20;;;;;;;7.10;5.87;;;26.70;94.90;;;;;;5047348;28;20801;-71
2023/07/08 08:59:02;;;;;;;6.53;5.83;;;26.80;94.90;;;;;;5031221;28;20209;-70
2023/07/08 09:01:28;;;;;;;6.30;5.70;;;27.00;92.70;;;;;;5049133;28;20457;-71
2023/07/08 09:04:15;;;;;;;7.50;6.40;;;27.10;90.30;;;;;;5048758;28;20428;-71
2023/07/08 09:06:41;;;;;;;6.67;5.93;;;27.30;89.20;;;;;;5048809;28;20504;-71
2023/07/08 09:09:16;;;;;;;7.93;6.17;;;27.40;88.00;;;;;;5049006;28;21027;-71
2023/07/08 09:11:51;;;;;;;6.83;5.90;;;27.50;86.50;;;;;;5047698;28;20439;-70
2023/07/08 09:14:27;;;;;;;8.77;6.30;;;27.60;87.20;;;;;;5048624;28;20416;-71
2023/07/08 09:17:34;;;;;;;7.47;5.70;;;27.80;82.50;;;;;;5048562;28;20501;-70
2023/07/08 09:20:21;;;;;;;5.80;5.20;;;27.90;81.30;;;;;;5046888;28;20467;-71
2023/07/08 09:22:51;;;;;;;6.67;5.97;;;28.00;77.30;;;;;;5048531;28;20444;-71
2023/07/08 09:25:29;;;;;;;7.80;5.83;;;28.10;76.60;;;;;;5048228;28;20508;-71
2023/07/08 09:27:55;;;;;;;7.30;5.23;;;28.00;77.10;;;;;;5048702;28;20761;-71
2023/07/08 09:30:23;;;;;;;6.30;5.47;;;28.00;76.80;;;;;;5047260;28;20420;-71
2023/07/08 09:32:49;;;;;;;6.60;5.30;;;27.80;78.50;;;;;;5048222;28;20427;-71
2023/07/08 09:35:19;;;;;;;5.40;4.90;;;27.80;79.00;;;;;;5048514;28;20436;-71
2023/07/08 09:37:47;;;;;;;6.00;5.27;;;27.80;78.30;;;;;;5048693;28;20823;-70
2023/07/08 09:40:18;;;;;;;6.53;5.30;;;27.90;79.20;;;;;;5048321;28;20543;-70
2023/07/08 09:42:49;;;;;;;6.13;5.17;;;28.10;77.70;;;;;;5048056;28;20449;-70
2023/07/08 09:45:18;;;;;;;6.03;4.90;;;28.20;71.60;;;;;;5046378;28;20971;-71
2023/07/08 09:47:45;;;;;;;6.30;4.80;;;28.30;72.60;;;;;;5047938;28;20928;-71
2023/07/08 09:50:28;;;;;;;5.03;4.53;;;28.40;72.40;;;;;;5048218;28;20471;-71
2023/07/08 09:52:57;;;;;;;10.13;5.13;;;28.50;72.00;;;;;;5047819;28;20424;-71
2023/07/08 09:55:23;;;;;;;5.33;4.83;;;28.60;73.10;;;;;;5046712;28;20841;-71
2023/07/08 09:57:52;;;;;;;6.87;5.30;;;28.70;74.20;;;;;;5048690;28;20508;-71
2023/07/08 10:00:26;;;;;;;5.43;4.73;;;28.80;70.70;;;;;;5048423;28;20459;-71
2023/07/08 10:02:55;;;;;;;6.70;4.90;;;28.90;69.60;;;;;;5048113;28;20478;-71
2023/07/08 10:05:34;;;;;;;5.43;4.83;;;29.00;68.60;;;;;;5048338;28;20829;-71
2023/07/08 10:08:03;;;;;;;6.33;4.60;;;29.00;70.00;;;;;;5046903;28;20436;-71
2023/07/08 10:10:37;;;;;;;4.57;4.17;;;29.20;67.80;;;;;;5048628;28;21400;-71
2023/07/08 10:13:20;;;;;;;4.73;4.30;;;29.20;67.10;;;;;;5047763;28;20412;-71
2023/07/08 10:15:56;;;;;;;6.87;5.00;;;29.20;69.60;;;;;;5047628;28;20432;-71
2023/07/08 10:18:29;;;;;;;4.73;4.23;;;29.30;67.30;;;;;;5048115;28;20456;-71
2023/07/08 10:21:22;;;;;;;4.07;3.67;;;29.30;66.10;;;;;;5048524;28;20470;-71
2023/07/08 10:24:09;;;;;;;5.20;4.47;;;29.40;64.50;;;;;;5047932;28;20423;-71
2023/07/08 10:26:38;;;;;;;7.13;4.10;;;29.50;67.30;;;;;;5047492;28;20831;-70
2023/07/08 10:29:27;;;;;;;5.50;4.50;;;29.50;66.30;;;;;;5051667;28;20432;-70
2023/07/08 10:32:20;;;;;;;5.10;4.70;;;29.60;69.40;;;;;;5051866;28;20466;-71
2023/07/08 10:35:17;;;;;;;4.57;4.17;;;29.70;69.40;;;;;;5052055;28;20416;-70
2023/07/08 10:38:03;;;;;;;5.83;4.63;;;29.80;66.70;;;;;;5052180;28;20478;-70
2023/07/08 10:40:38;;;;;;;6.30;4.40;;;29.90;64.40;;;;;;5050931;28;20420;-71
2023/07/08 10:43:24;;;;;;;5.67;4.77;;;29.90;64.20;;;;;;5051426;28;20442;-71
2023/07/08 10:46:03;;;;;;;5.00;4.60;;;30.10;66.60;;;;;;5051584;28;20418;-71
2023/07/08 10:48:59;;;;;;;4.77;4.20;;;30.10;64.10;;;;;;5052044;28;20420;-71
2023/07/08 10:51:25;;;;;;;4.33;3.80;;;30.20;64.50;;;;;;5051829;28;20404;-71
2023/07/08 10:54:26;;;;;;;6.10;4.00;;;30.20;62.80;;;;;;5051238;28;20755;-70
2023/07/08 10:57:05;;;;;;;5.60;3.83;;;30.30;61.50;;;;;;5042467;28;20286;-70
2023/07/08 11:00:28;;;;;;;5.83;4.23;;;30.40;62.10;;;;;;5051644;28;20593;-71
2023/07/08 11:03:20;;;;;;;4.40;4.00;;;30.50;62.50;;;;;;5008395;28;20414;-71
2023/07/08 11:05:56;;;;;;;4.57;4.17;;;30.60;61.00;;;;;;5083642;28;20438;-71
2023/07/08 11:08:24;;;;;;;4.50;4.00;;;30.60;58.10;;;;;;5051592;28;21308;-71
2023/07/08 11:10:55;;;;;;;5.13;4.50;;;30.60;59.10;;;;;;5051549;28;20937;-71
2023/07/08 11:13:24;;;;;;;5.53;4.57;;;30.60;59.20;;;;;;5050819;28;20415;-71
2023/07/08 11:16:01;;;;;;;4.60;4.20;;;30.70;59.80;;;;;;5051028;28;20425;-71
2023/07/08 11:18:44;;;;;;;5.17;4.50;;;30.70;58.50;;;;;;5051375;28;20455;-71
2023/07/08 11:21:19;;;;;;;5.33;4.40;;;30.80;58.40;;;;;;5051418;28;20408;-71
2023/07/08 11:23:47;;;;;;;4.50;3.83;;;30.80;58.00;;;;;;5050672;28;20438;-71
2023/07/08 11:26:48;;;;;;;4.53;4.00;;;30.80;58.90;;;;;;5050643;28;20792;-71
2023/07/08 11:29:38;;;;;;;5.30;4.13;;;30.80;56.80;;;;;;5025075;28;20428;-71
2023/07/08 11:32:06;;;;;;;6.00;4.40;;;30.80;56.30;;;;;;5039682;28;20420;-71
2023/07/08 11:34:34;;;;;;;5.20;4.17;;;30.80;56.00;;;;;;5051013;28;20469;-71
2023/07/08 11:37:01;;;;;;;6.53;4.70;;;30.80;57.30;;;;;;5050729;28;20432;-71
2023/07/08 11:39:32;;;;;;;5.43;4.10;;;30.90;56.40;;;;;;5050906;28;20908;-70
2023/07/08 11:42:12;;;;;;;4.90;4.40;;;30.90;57.80;;;;;;5050589;28;20855;-71
2023/07/08 11:44:43;;;;;;;5.90;5.10;;;31.00;55.90;;;;;;5050662;28;20421;-71
2023/07/08 11:47:19;;;;;;;5.30;4.13;;;31.00;56.60;;;;;;5050812;28;20498;-71
2023/07/08 11:49:48;;;;;;;6.30;4.23;;;31.10;55.10;;;;;;5050808;28;20412;-71
2023/07/08 11:52:17;;;;;;;6.13;4.30;;;31.10;55.80;;;;;;5050311;28;20779;-71
2023/07/08 11:54:46;;;;;;;5.37;4.87;;;31.10;57.60;;;;;;5048433;28;20417;-71
2023/07/08 11:57:19;;;;;;;5.27;4.23;;;31.10;56.90;;;;;;5048688;28;20471;-71
2023/07/08 11:59:46;;;;;;;5.20;4.63;;;31.10;55.00;;;;;;5050247;28;20820;-71
2023/07/08 12:02:15;;;;;;;5.93;4.70;;;31.20;55.60;;;;;;5049801;28;20412;-71
2023/07/08 12:04:58;;;;;;;4.90;4.40;;;31.20;57.20;;;;;;5049902;28;20412;-71
2023/07/08 12:07:41;;;;;;;7.43;4.53;;;31.20;55.20;;;;;;5050556;28;20419;-71
2023/07/08 12:10:16;;;;;;;4.90;4.50;;;31.20;56.60;;;;;;5050485;28;20417;-70
2023/07/08 12:12:43;;;;;;;4.53;4.10;;;31.30;54.70;;;;;;5049765;28;20411;-71
2023/07/08 12:15:12;;;;;;;7.10;4.20;;;31.30;54.30;;;;;;5046347;28;20451;-71
2023/07/08 12:17:39;;;;;;;5.37;4.40;;;31.30;55.20;;;;;;5048495;28;20435;-70
2023/07/08 12:20:41;;;;;;;6.03;4.70;;;31.30;53.70;;;;;;5049956;28;20462;-70
2023/07/08 12:23:17;;;;;;;6.10;3.90;;;31.30;54.10;;;;;;5016404;28;20784;-71
2023/07/08 12:25:43;;;;;;;5.43;4.13;;;31.40;53.60;;;;;;5049814;28;20493;-71
2023/07/08 12:28:12;;;;;;;6.93;4.40;;;31.40;53.50;;;;;;5049882;28;20413;-71
2023/07/08 12:30:39;;;;;;;4.90;4.40;;;31.40;53.10;;;;;;5049217;28;20182;-71
2023/07/08 12:33:12;;;;;;;5.73;4.10;;;31.50;53.20;;;;;;5048530;28;20450;-71
2023/07/08 12:35:37;;;;;;;5.47;4.43;;;31.40;55.00;;;;;;5049163;28;20436;-71
2023/07/08 12:38:13;;;;;;;6.30;4.60;;;31.50;55.80;;;;;;5049396;28;20754;-70
2023/07/08 12:40:41;;;;;;;5.00;4.50;;;31.50;53.80;;;;;;5049884;28;20272;-71
2023/07/08 12:43:10;;;;;;;5.40;4.20;;;31.50;53.70;;;;;;5048973;28;20415;-71
2023/07/08 12:45:36;;;;;;;4.83;4.10;;;31.60;54.40;;;;;;5049178;28;20590;-71
2023/07/08 12:48:02;;;;;;;4.77;4.37;;;31.70;55.20;;;;;;5049617;28;20819;-71
2023/07/08 12:50:28;;;;;;;4.93;4.47;;;31.70;54.40;;;;;;5049312;28;20496;-71
2023/07/08 12:52:56;;;;;;;5.50;4.10;;;31.70;53.00;;;;;;5048855;28;20650;-71
2023/07/08 12:55:22;;;;;;;5.70;4.60;;;31.70;54.00;;;;;;5045582;28;20458;-71
2023/07/08 12:57:51;;;;;;;5.17;4.37;;;31.70;53.80;;;;;;5049033;28;20916;-71
2023/07/08 13:00:32;;;;;;;4.83;4.17;;;31.70;51.60;;;;;;5049389;28;20452;-71